createdAt,value
2018-06-04T10:19:13.800Z,2.73
2018-06-04T10:21:42.662Z,3.03
2018-06-04T10:24:10.784Z,4.10
2018-06-04T10:26:38.866Z,2.73
2018-06-04T10:29:06.976Z,3.03
2018-06-04T10:31:35.131Z,2.67
2018-06-04T10:34:03.256Z,2.73
2018-06-04T10:36:32.127Z,2.70
2018-06-04T10:39:00.245Z,2.60
2018-06-04T10:41:28.474Z,2.83
2018-06-04T10:43:56.653Z,2.90
2018-06-04T10:46:24.841Z,2.20
2018-06-04T10:48:53.738Z,2.50
2018-06-04T10:51:22.593Z,2.87
2018-06-04T10:53:50.702Z,2.50
2018-06-04T10:56:18.929Z,2.43
2018-06-04T10:58:47.070Z,2.83
2018-06-04T11:01:15.172Z,2.47
2018-06-04T11:03:43.266Z,2.23
2018-06-04T11:06:11.389Z,2.20
2018-06-04T11:08:39.527Z,2.17
2018-06-04T11:11:08.401Z,2.30
2018-06-04T11:13:36.491Z,2.67
2018-06-04T11:16:06.000Z,2.30
2018-06-04T11:18:34.874Z,2.80
2018-06-04T11:21:02.970Z,3.70
2018-06-04T11:23:31.864Z,2.70
2018-06-04T11:26:00.018Z,2.33
2018-06-04T11:28:28.101Z,2.40
2018-06-04T11:30:56.260Z,2.43
2018-06-04T11:33:25.152Z,2.40
2018-06-04T11:35:53.266Z,3.20
2018-06-04T11:38:21.362Z,3.17
2018-06-04T11:40:49.476Z,2.60
2018-06-04T11:43:17.570Z,2.27
2018-06-04T11:45:45.815Z,2.60
2018-06-04T11:48:13.995Z,2.67
2018-06-04T11:50:42.875Z,2.63
2018-06-04T11:53:11.111Z,2.47
2018-06-04T11:55:39.226Z,2.53
2018-06-04T11:58:07.309Z,2.43
2018-06-04T12:00:36.223Z,2.50
2018-06-04T12:03:04.313Z,2.43
2018-06-04T12:05:32.429Z,2.63
2018-06-04T12:08:00.522Z,2.40
2018-06-04T12:10:28.615Z,2.57
2018-06-04T12:12:56.749Z,2.50
2018-06-04T12:15:25.657Z,2.40
2018-06-04T12:17:54.595Z,2.40
2018-06-04T12:20:22.727Z,2.47
2018-06-04T12:22:50.837Z,2.70
2018-06-04T12:25:18.948Z,2.70
2018-06-04T12:27:47.062Z,2.47
2018-06-04T12:30:15.196Z,2.50
2018-06-04T12:32:43.333Z,2.80
2018-06-04T12:35:11.467Z,2.50
2018-06-04T12:37:39.634Z,2.70
2018-06-04T12:40:07.730Z,2.30
2018-06-04T12:42:35.841Z,2.40
2018-06-04T12:45:03.948Z,2.40
2018-06-04T12:47:32.950Z,2.40
2018-06-04T12:50:01.218Z,2.50
2018-06-04T12:52:29.448Z,2.77
2018-06-04T12:54:57.665Z,2.70
2018-06-04T12:57:26.552Z,2.90
2018-06-04T12:59:55.430Z,2.40
2018-06-04T13:02:23.531Z,2.60
2018-06-04T13:04:51.713Z,2.47
2018-06-04T13:07:19.826Z,2.73
2018-06-04T13:09:48.064Z,2.80
2018-06-04T13:12:16.274Z,2.53
2018-06-04T13:14:44.393Z,2.50
2018-06-04T13:17:12.520Z,2.63
2018-06-04T13:19:40.680Z,2.90
2018-06-04T13:22:08.807Z,2.50
2018-06-04T13:24:36.915Z,2.60
2018-06-04T13:27:05.019Z,2.50
2018-06-04T13:29:33.133Z,2.40
2018-06-04T13:32:01.242Z,2.60
2018-06-04T13:34:29.336Z,2.63
2018-06-04T13:36:57.460Z,2.50
2018-06-04T13:39:25.684Z,2.60
2018-06-04T13:41:53.746Z,2.27
2018-06-04T13:44:21.872Z,2.70
2018-06-04T13:46:49.975Z,2.70
2018-06-04T13:49:18.119Z,2.73
2018-06-04T13:51:46.221Z,2.80
2018-06-04T13:54:14.314Z,2.67
2018-06-04T13:56:42.445Z,2.47
2018-06-04T13:59:10.557Z,2.60
2018-06-04T14:01:38.661Z,2.90
2018-06-04T14:04:07.554Z,2.40
2018-06-04T14:06:35.684Z,2.40
2018-06-04T14:09:03.772Z,2.70
2018-06-04T14:11:31.882Z,2.63
2018-06-04T14:13:59.971Z,2.70
2018-06-04T14:16:28.083Z,2.33
2018-06-04T14:18:56.196Z,2.70
2018-06-04T14:21:24.655Z,2.80
2018-06-04T14:23:52.747Z,2.90
2018-06-04T14:26:21.604Z,2.90
2018-06-04T14:28:49.705Z,2.63
2018-06-04T14:31:18.600Z,3.10
2018-06-04T14:33:47.531Z,2.33
2018-06-04T14:36:15.600Z,2.60
2018-06-04T14:38:43.713Z,2.70
2018-06-04T14:41:11.825Z,2.43
2018-06-04T14:43:39.936Z,2.47
2018-06-04T14:46:08.057Z,2.80
2018-06-04T14:48:36.178Z,2.90
2018-06-04T14:51:04.331Z,2.70
2018-06-04T14:53:32.537Z,2.47
2018-06-04T14:56:00.665Z,2.83
2018-06-04T14:58:28.784Z,2.85
2018-06-04T15:00:56.918Z,2.60
2018-06-04T15:03:25.032Z,2.45
2018-06-04T15:05:53.139Z,2.97
2018-06-04T15:08:21.251Z,2.83
2018-06-04T15:10:49.360Z,3.20
2018-06-04T15:13:18.233Z,3.08
2018-06-04T15:15:46.401Z,2.60
2018-06-04T15:18:14.507Z,2.97
2018-06-04T15:20:42.627Z,2.70
2018-06-04T15:23:10.953Z,2.60
2018-06-04T15:25:39.201Z,2.80
2018-06-04T15:28:08.092Z,3.10
2018-06-04T15:30:36.745Z,3.15
2018-06-04T15:33:04.850Z,2.95
2018-06-04T15:35:32.948Z,3.50
2018-06-04T15:38:01.994Z,3.17
2018-06-04T15:40:30.264Z,3.12
2018-06-04T15:42:58.413Z,2.90
2018-06-04T15:45:26.518Z,3.10
2018-06-04T15:47:54.658Z,3.28
2018-06-04T15:50:22.804Z,2.50
2018-06-04T15:52:50.873Z,3.47
2018-06-04T15:55:19.766Z,3.03
2018-06-04T15:57:47.969Z,3.10
2018-06-04T16:00:16.198Z,2.97
2018-06-04T16:02:44.406Z,3.33
2018-06-04T16:05:12.492Z,2.97
2018-06-04T16:07:40.622Z,3.30
2018-06-04T16:10:08.740Z,2.80
2018-06-04T16:12:36.866Z,2.53
2018-06-04T16:15:04.988Z,3.25
2018-06-04T16:17:33.112Z,2.78
2018-06-04T16:20:01.250Z,2.70
2018-06-04T16:22:29.449Z,2.70
2018-06-04T16:24:57.584Z,2.77
2018-06-04T16:27:25.692Z,2.83
2018-06-04T16:29:53.829Z,2.40
2018-06-04T16:32:21.975Z,2.50
2018-06-04T16:34:50.091Z,2.63
2018-06-04T16:37:18.266Z,2.93
2018-06-04T16:39:47.181Z,2.60
2018-06-04T16:42:15.472Z,3.10
2018-06-04T16:44:43.630Z,2.50
2018-06-04T16:47:11.933Z,2.53
2018-06-04T16:49:40.067Z,2.63
2018-06-04T16:52:08.171Z,2.50
2018-06-04T16:54:36.297Z,2.63
2018-06-04T16:57:05.232Z,2.43
2018-06-04T16:59:33.406Z,2.50
2018-06-04T17:02:01.508Z,2.37
2018-06-04T17:04:29.663Z,2.80
2018-06-04T17:06:59.125Z,2.70
2018-06-04T17:09:27.306Z,2.87
2018-06-04T17:11:55.423Z,3.00
2018-06-04T17:14:23.553Z,3.20
2018-06-04T17:16:51.836Z,2.60
2018-06-04T17:19:20.077Z,2.93
2018-06-04T17:21:48.248Z,2.60
2018-06-04T17:24:16.380Z,2.63
2018-06-04T17:26:44.957Z,2.80
2018-06-04T17:29:13.446Z,2.60
2018-06-04T17:31:41.920Z,3.00
2018-06-04T17:34:10.079Z,2.43
2018-06-04T17:36:38.340Z,2.70
2018-06-04T17:39:06.468Z,2.93
2018-06-04T17:41:34.582Z,3.00
2018-06-04T17:44:02.941Z,3.00
2018-06-04T17:46:31.079Z,2.93
2018-06-04T17:48:59.420Z,3.13
2018-06-04T17:51:27.700Z,2.83
2018-06-04T17:53:55.815Z,2.97
2018-06-04T17:56:24.753Z,3.40
2018-06-04T17:58:52.860Z,3.30
2018-06-04T18:01:20.978Z,3.50
2018-06-04T18:03:49.122Z,3.10
2018-06-04T18:06:18.032Z,3.20
2018-06-04T18:08:46.159Z,3.10
2018-06-04T18:11:14.256Z,3.17
2018-06-04T18:13:42.529Z,3.40
2018-06-04T18:16:10.746Z,3.13
2018-06-04T18:18:39.589Z,3.20
2018-06-04T18:21:08.513Z,3.33
2018-06-04T18:23:37.454Z,3.30
2018-06-04T18:26:05.648Z,3.33
2018-06-04T18:28:33.850Z,3.57
2018-06-04T18:31:01.982Z,3.60
2018-06-04T18:33:30.142Z,3.73
2018-06-04T18:35:58.867Z,3.33
2018-06-04T18:38:27.170Z,3.80
2018-06-04T18:40:55.314Z,3.97
2018-06-04T18:43:23.406Z,3.70
2018-06-04T18:45:51.522Z,3.63
2018-06-04T18:48:19.626Z,4.30
2018-06-04T18:50:47.766Z,4.23
2018-06-04T18:53:15.919Z,4.23
2018-06-04T18:55:44.075Z,3.73
2018-06-04T18:58:12.187Z,4.60
2018-06-04T19:00:40.288Z,5.30
2018-06-04T19:03:09.185Z,4.67
2018-06-04T19:05:37.305Z,4.33
2018-06-04T19:08:05.433Z,4.33
2018-06-04T19:10:33.545Z,4.20
2018-06-04T19:13:01.648Z,4.07
2018-06-04T19:15:29.791Z,4.60
2018-06-04T19:17:57.966Z,4.33
2018-06-04T19:20:26.191Z,4.37
2018-06-04T19:22:54.329Z,4.70
2018-06-04T19:25:22.476Z,4.57
2018-06-04T19:27:50.576Z,4.20
2018-06-04T19:30:18.694Z,4.63
2018-06-04T19:32:46.813Z,4.50
2018-06-04T19:35:14.913Z,4.20
2018-06-04T19:37:43.790Z,4.53
2018-06-04T19:40:11.927Z,4.40
2018-06-04T19:42:40.041Z,4.63
2018-06-04T19:45:08.126Z,4.50
2018-06-04T19:47:36.261Z,4.53
2018-06-04T19:50:04.357Z,4.20
2018-06-04T19:52:32.469Z,4.87
2018-06-04T19:55:00.602Z,4.47
2018-06-04T19:57:28.784Z,4.73
2018-06-04T19:59:56.892Z,5.27
2018-06-04T20:02:25.005Z,4.57
2018-06-04T20:04:53.978Z,5.00
2018-06-04T20:07:22.090Z,4.83
2018-06-04T20:09:50.180Z,4.57
2018-06-04T20:12:19.072Z,4.73
2018-06-04T20:14:47.928Z,4.67
2018-06-04T20:17:16.030Z,5.23
2018-06-04T20:19:45.057Z,4.97
2018-06-04T20:22:13.153Z,4.60
2018-06-04T20:24:41.282Z,5.10
2018-06-04T20:27:10.169Z,5.40
2018-06-04T20:29:38.310Z,5.53
2018-06-04T20:32:06.432Z,5.30
2018-06-04T20:34:34.603Z,4.90
2018-06-04T20:37:02.697Z,5.27
2018-06-04T20:39:30.810Z,5.30
2018-06-04T20:41:58.915Z,5.00
2018-06-04T20:44:27.013Z,5.17
2018-06-04T20:46:55.131Z,5.30
2018-06-04T20:49:23.219Z,5.20
2018-06-04T20:51:52.107Z,5.67
2018-06-04T20:54:20.992Z,5.40
2018-06-04T20:56:49.880Z,5.60
2018-06-04T20:59:18.764Z,5.30
2018-06-04T21:01:46.855Z,5.70
2018-06-04T21:04:15.737Z,5.77
2018-06-04T21:06:44.641Z,5.50
2018-06-04T21:09:14.261Z,5.90
2018-06-04T21:11:42.374Z,5.90
2018-06-04T21:14:10.483Z,5.87
2018-06-04T21:16:39.403Z,5.90
2018-06-04T21:19:07.533Z,6.30
2018-06-04T21:21:35.655Z,5.73
2018-06-04T21:24:03.765Z,5.90
2018-06-04T21:26:31.882Z,5.73
2018-06-04T21:28:59.975Z,6.50
2018-06-04T21:31:28.159Z,5.80
2018-06-04T21:33:56.388Z,6.07
2018-06-04T21:36:24.620Z,6.30
2018-06-04T21:38:52.869Z,6.40
2018-06-04T21:41:20.987Z,5.87
2018-06-04T21:43:49.088Z,6.23
2018-06-04T21:46:17.706Z,6.33
2018-06-04T21:48:46.401Z,6.40
2018-06-04T21:51:14.491Z,5.53
2018-06-04T21:53:42.624Z,6.47
2018-06-04T21:56:10.718Z,6.30
2018-06-04T21:58:38.841Z,6.00
2018-06-04T22:01:07.760Z,6.07
2018-06-04T22:03:35.876Z,6.07
2018-06-04T22:06:03.993Z,6.90
2018-06-04T22:08:32.098Z,5.93
2018-06-04T22:11:00.219Z,6.23
2018-06-04T22:13:29.105Z,6.20
2018-06-04T22:15:57.993Z,6.07
2018-06-04T22:18:26.929Z,6.43
2018-06-04T22:20:55.049Z,6.30
2018-06-04T22:23:23.179Z,6.80
2018-06-04T22:25:51.302Z,6.60
2018-06-04T22:28:19.420Z,6.70
2018-06-04T22:30:47.539Z,6.70
2018-06-04T22:33:15.662Z,6.83
2018-06-04T22:35:43.762Z,6.00
2018-06-04T22:38:11.904Z,6.10
2018-06-04T22:40:40.034Z,6.47
2018-06-04T22:43:08.312Z,6.57
2018-06-04T22:45:36.416Z,6.07
2018-06-04T22:48:04.586Z,6.13
2018-06-04T22:50:32.724Z,6.53
2018-06-04T22:53:00.818Z,6.00
2018-06-04T22:55:28.934Z,6.43
2018-06-04T22:57:57.053Z,6.67
2018-06-04T23:00:25.954Z,6.20
2018-06-04T23:02:55.431Z,6.37
2018-06-04T23:05:23.541Z,5.70
2018-06-04T23:07:51.737Z,6.40
2018-06-04T23:10:19.873Z,6.10
2018-06-04T23:12:48.762Z,6.40
2018-06-04T23:15:17.640Z,6.50
2018-06-04T23:17:45.767Z,7.10
2018-06-04T23:20:13.901Z,6.70
2018-06-04T23:22:42.015Z,6.40
2018-06-04T23:25:10.140Z,7.03
2018-06-04T23:27:38.989Z,6.50
2018-06-04T23:30:07.106Z,6.73
2018-06-04T23:32:35.986Z,6.60
2018-06-04T23:35:04.105Z,6.63
2018-06-04T23:37:32.229Z,6.63
2018-06-04T23:40:00.326Z,6.83
2018-06-04T23:42:28.446Z,6.47
2018-06-04T23:44:56.544Z,7.17
2018-06-04T23:47:24.732Z,6.73
2018-06-04T23:49:52.931Z,7.03
2018-06-04T23:52:21.180Z,6.00
2018-06-04T23:54:50.147Z,6.57
2018-06-04T23:57:18.244Z,6.53
2018-06-04T23:59:46.359Z,6.60
